METAR AND TAF INFORMATION
METAR FOR UHSS
ADDS - METARS form results

(2115 UTC 24 February 2020)
Data provider http://aviationweather.gov/metar/data/
 
METAR text: UHSS 242100Z 01001MPS 9999 FEW040 M23/M26 Q1020 R01/810260 NOSIG RMK QFE764/1019
Conditions at: UHSS (JUZNO-SAHALINSK , RU) observed 2100 UTC 24 February 2020
Temperature: -23.0°C (-9°F)
Dewpoint: -26.0°C (-15°F) [RH = 76%]
Pressure (altimeter): 30.12 inches Hg (1020.0 mb)
Winds: from the N (10 degrees) at 2 MPH (2 knots; 1.0 m/s)
Visibility: 6 or more miles (10+ km)
Ceiling: at least 12,000 feet AGL
Clouds: few clouds at 4000 feet AGL
Weather: no significant weather observed at this time

METAR text: UHSS 242030Z 36002MPS 9999 FEW040 M22/M24 Q1020 R01/810260 NOSIG RMK QFE764/1019
Conditions at: UHSS (JUZNO-SAHALINSK , RU) observed 2030 UTC 24 February 2020
Temperature: -22.0°C (-8°F)
Dewpoint: -24.0°C (-11°F) [RH = 84%]
Pressure (altimeter): 30.12 inches Hg (1020.0 mb)
Winds: from the N (360 degrees) at 5 MPH (4 knots; 2.1 m/s)
Visibility: 6 or more miles (10+ km)
Ceiling: at least 12,000 feet AGL
Clouds: few clouds at 4000 feet AGL
Weather: no significant weather observed at this time

Forecast for: UHSS (JUZNO-SAHALINSK , RU)
Text: TAF UHSS 241950Z 2421/2603 31003MPS 9999 BKN030CB
Forecast period: 2100 UTC 24 February 2020 to 0300 UTC 26 February 2020
Forecast type: FROM: standard forecast or significant change
Winds: from the NW (310 degrees) at 7 MPH (6 knots; 3.1 m/s)
Visibility: 6 or more miles 10+ km)
Ceiling: 3000 feet AGL
Clouds: broken clouds at 3000 feet AGL
Weather: no significant weather forecast for this period
Text: TEMPO 2421/2512 1400 SHSN BR
Forecast period: 2100 UTC 24 February 2020 to 1200 UTC 25 February 2020
Forecast type: TEMPORARY: The following changes expected for less than half the time period
Visibility: 0.87 miles (1.40 km)
Ceiling: unknown
Clouds: missing
Weather: SHSN BR  (snow showers, mist)

 AIRPORT MAP

 RUNWAY INFORMATION
Runway 01 Runway length 11155 ft Runway width 148 ft
Runway elevation 44 ft Runway displaced threshold 0 ft Runway heading 1
Runway 19 Runway length 11155 ft Runway width 148 ft
Runway elevation 49 ft Runway displaced threshold 2080 ft Runway heading 181

 AIRPORT FREQUENCIES
Type GCA Name RDR Frequency 120.6 MHZ
Type TWR Name TWR Frequency 120.6 MHZ

 AIRPORT NEAR NAVIGATION AIDS
Type NDB Name Khomutovo Frequency 505 KHZ
Type NDB Name Khomutovo Frequency 505 KHZ